This is the latest recevied weather packets stored in our database for station/object HK6REC-23. If no packets are shown the sender has not sent any weather packets the latest 1 day(s).
| Time | Temp. | Humidity | Pressure | Rain* | Wind** | Luminosity | Snow |
|---|---|---|---|---|---|---|---|
| 1778056890 | 12.22° C | 93% | 1014 hPa | 0 mm | - | - | - |
| 1778052683 | 13.33° C | 94% | 1015 hPa | 0 mm | - | - | - |
| 1778052082 | 13.33° C | 94% | 1015 hPa | 0 mm | - | - | - |
| 1778051481 | 13.33° C | 94% | 1015 hPa | 0 mm | - | - | - |
| 1778050279 | 13.89° C | 95% | 1015 hPa | 0 mm | - | - | - |
| 1778049077 | 12.22° C | 94% | 1015 hPa | 0 mm | - | - | - |
| 1778047875 | 12.22° C | 94% | 1015 hPa | 0 mm | - | - | - |
| 1778044870 | 14.44° C | 91% | 1016 hPa | 0 mm | - | - | - |
| 1778044269 | 16.11° C | 91% | 1016 hPa | 0 mm | - | - | - |
| 1778043668 | 12.78° C | 93% | 1015 hPa | 0 mm | - | - | - |
| 1778037659 | 15° C | 90% | 1016 hPa | 0 mm | - | - | - |
| 1778037058 | 16.67° C | 90% | 1016 hPa | 0 mm | - | - | - |
| 1778036457 | 13.33° C | 92% | 1015 hPa | 0 mm | - | - | - |
| 1778035856 | 13.33° C | 92% | 1015 hPa | 0 mm | - | - | - |
| 1778035255 | 13.33° C | 92% | 1015 hPa | 0 mm | - | - | - |
| 1778034654 | 13.89° C | 87% | 1015 hPa | 0 mm | - | - | - |
| 1778034053 | 15.56° C | 87% | 1015 hPa | 0 mm | - | - | - |
| 1778033452 | 17.22° C | 87% | 1015 hPa | 0 mm | - | - | - |
| 1778032851 | 12.78° C | 88% | 1015 hPa | 0 mm | - | - | - |
| 1778032250 | 12.78° C | 88% | 1015 hPa | 0 mm | - | - | - |
| 1778031649 | 13.89° C | 88% | 1015 hPa | 0 mm | - | - | - |
| 1778031048 | 15.56° C | 88% | 1015 hPa | 0 mm | - | - | - |
| 1778030447 | 17.22° C | 88% | 1014 hPa | 0 mm | - | - | - |
| 1778029846 | 13.33° C | 91% | 1014 hPa | 0 mm | - | - | - |
| 1778029245 | 15° C | 91% | 1014 hPa | 0 mm | - | - | - |
* Rain latest hour (hover to see other rain measurements)
** Current wind speed in m/s (hover to see current wind gust speed)